createdAt,value
2019-01-20T00:01:26.263Z,14.87
2019-01-20T00:03:56.403Z,14.23
2019-01-20T00:06:26.442Z,14.50
2019-01-20T00:08:56.461Z,14.73
2019-01-20T00:11:26.500Z,14.60
2019-01-20T00:13:56.787Z,13.95
2019-01-20T00:16:26.849Z,13.90
2019-01-20T00:18:56.891Z,15.48
2019-01-20T00:21:27.641Z,15.38
2019-01-20T00:23:58.048Z,15.83
2019-01-20T00:26:28.321Z,16.05
2019-01-20T00:28:58.771Z,15.48
2019-01-20T00:31:28.915Z,15.30
2019-01-20T00:33:59.334Z,14.83
2019-01-20T00:36:29.876Z,15.18
2019-01-20T00:39:01.075Z,15.55
2019-01-20T00:41:32.352Z,16.87
2019-01-20T00:44:02.440Z,17.12
2019-01-20T00:46:32.473Z,15.80
2019-01-20T00:49:02.472Z,16.65
2019-01-20T00:51:32.998Z,17.00
2019-01-20T00:54:03.197Z,15.65
2019-01-20T00:56:33.347Z,18.00
2019-01-20T00:59:03.378Z,16.60
2019-01-20T01:01:33.506Z,16.95
2019-01-20T01:04:15.142Z,16.42
2019-01-20T01:06:45.255Z,17.27
2019-01-20T01:09:16.465Z,16.77
2019-01-20T01:11:46.508Z,17.27
2019-01-20T01:14:16.589Z,17.42
2019-01-20T01:16:47.033Z,16.27
2019-01-20T01:19:18.996Z,17.85
2019-01-20T01:21:49.038Z,16.48
2019-01-20T01:24:19.051Z,17.12
2019-01-20T01:26:49.171Z,16.95
2019-01-20T01:29:19.938Z,16.70
2019-01-20T01:31:50.040Z,15.80
2019-01-20T01:34:20.203Z,17.37
2019-01-20T01:36:50.248Z,15.63
2019-01-20T01:39:20.281Z,16.50
2019-01-20T01:41:50.313Z,16.40
2019-01-20T01:44:20.350Z,16.70
2019-01-20T01:46:50.368Z,17.05
2019-01-20T01:49:20.399Z,17.00
2019-01-20T01:51:50.790Z,16.30
2019-01-20T01:54:20.914Z,16.42
2019-01-20T01:56:51.074Z,17.17
2019-01-20T01:59:21.648Z,17.20
2019-01-20T02:01:52.774Z,17.25
2019-01-20T02:04:22.796Z,17.23
2019-01-20T02:06:52.847Z,17.62
2019-01-20T02:09:22.902Z,16.10
2019-01-20T02:11:53.658Z,17.00
2019-01-20T02:14:23.680Z,17.80
2019-01-20T02:16:53.692Z,16.67
2019-01-20T02:19:23.813Z,16.02
2019-01-20T02:21:55.010Z,16.45
2019-01-20T02:24:25.012Z,14.95
2019-01-20T02:26:55.064Z,13.80
2019-01-20T02:29:25.098Z,13.83
2019-01-20T02:31:55.506Z,13.98
2019-01-20T02:34:25.539Z,13.40
2019-01-20T02:36:55.946Z,12.43
2019-01-20T02:39:26.716Z,11.78
2019-01-20T02:41:57.125Z,12.18
2019-01-20T02:44:27.215Z,12.03
2019-01-20T02:46:57.230Z,12.13
2019-01-20T02:49:27.280Z,12.05
2019-01-20T02:51:57.710Z,11.15
2019-01-20T02:54:28.168Z,10.90
2019-01-20T02:56:58.858Z,11.85
2019-01-20T02:59:28.890Z,11.03
2019-01-20T03:01:58.917Z,10.60
2019-01-20T03:04:29.368Z,10.63
2019-01-20T03:06:59.386Z,11.05
2019-01-20T03:09:29.410Z,11.78
2019-01-20T03:12:03.562Z,10.93
2019-01-20T03:14:31.233Z,11.33
2019-01-20T03:17:01.572Z,11.20
2019-01-20T03:19:31.660Z,10.55
2019-01-20T03:22:01.716Z,10.65
2019-01-20T03:24:31.738Z,10.60
2019-01-20T03:27:01.776Z,11.30
2019-01-20T03:29:32.382Z,10.95
2019-01-20T03:32:02.539Z,10.50
2019-01-20T03:34:32.682Z,10.23
2019-01-20T03:37:03.143Z,11.25
2019-01-20T03:39:33.247Z,10.72
2019-01-20T03:42:03.304Z,10.85
2019-01-20T03:44:33.326Z,10.65
2019-01-20T03:47:03.447Z,9.80
2019-01-20T03:49:33.480Z,9.65
2019-01-20T03:52:03.602Z,9.75
2019-01-20T03:54:33.956Z,10.15
2019-01-20T03:57:04.792Z,10.93
2019-01-20T03:59:34.814Z,10.10
2019-01-20T04:02:05.060Z,10.20
2019-01-20T04:04:35.109Z,10.70
2019-01-20T04:07:05.690Z,9.93
2019-01-20T04:09:35.801Z,9.80
2019-01-20T04:12:05.847Z,8.85
2019-01-20T04:14:35.935Z,10.65
2019-01-20T04:17:06.206Z,9.75
2019-01-20T04:19:36.250Z,10.75
2019-01-20T04:22:06.359Z,10.18
2019-01-20T04:24:36.473Z,10.08
2019-01-20T04:27:06.590Z,9.75
2019-01-20T04:29:36.744Z,9.75
2019-01-20T04:32:06.782Z,9.40
2019-01-20T04:34:36.881Z,9.38
2019-01-20T04:37:06.895Z,9.35
2019-01-20T04:39:36.916Z,10.30
2019-01-20T04:42:06.928Z,9.18
2019-01-20T04:44:36.960Z,10.75
2019-01-20T04:47:06.985Z,9.23
2019-01-20T04:49:37.078Z,10.08
2019-01-20T04:52:07.072Z,8.60
2019-01-20T04:54:37.424Z,10.13
2019-01-20T04:57:07.460Z,9.95
2019-01-20T04:59:37.497Z,9.63
2019-01-20T05:02:07.521Z,9.40
2019-01-20T05:04:37.571Z,11.05
2019-01-20T05:07:07.643Z,10.43
2019-01-20T05:09:38.659Z,10.32
2019-01-20T05:12:09.059Z,10.40
2019-01-20T05:14:39.614Z,9.63
2019-01-20T05:17:10.042Z,10.58
2019-01-20T05:19:40.142Z,9.23
2019-01-20T05:22:10.246Z,9.93
2019-01-20T05:24:40.359Z,11.43
2019-01-20T05:27:10.447Z,10.43
2019-01-20T05:29:40.511Z,10.35
2019-01-20T05:32:10.560Z,10.85
2019-01-20T05:34:40.615Z,12.10
2019-01-20T05:37:10.656Z,11.20
2019-01-20T05:39:41.123Z,10.75
2019-01-20T05:42:11.159Z,11.22
2019-01-20T05:44:41.258Z,10.60
2019-01-20T05:47:11.332Z,11.03
2019-01-20T05:49:41.784Z,9.45
2019-01-20T05:52:11.895Z,10.18
2019-01-20T05:54:42.327Z,10.80
2019-01-20T05:57:12.387Z,10.60
2019-01-20T05:59:42.865Z,10.53
2019-01-20T06:02:12.996Z,12.03
2019-01-20T06:04:43.167Z,10.80
2019-01-20T06:07:13.213Z,11.70
2019-01-20T06:09:43.669Z,11.15
2019-01-20T06:12:13.721Z,11.03
2019-01-20T06:14:44.107Z,10.23
2019-01-20T06:17:14.180Z,10.78
2019-01-20T06:19:44.204Z,11.40
2019-01-20T06:22:14.267Z,10.28
2019-01-20T06:24:44.308Z,10.68
2019-01-20T06:27:14.362Z,10.75
2019-01-20T06:29:44.387Z,10.68
2019-01-20T06:32:14.487Z,11.97
2019-01-20T06:34:44.501Z,11.12
2019-01-20T06:37:14.540Z,10.25
2019-01-20T06:39:44.903Z,10.58
2019-01-20T06:42:15.023Z,10.43
2019-01-20T06:44:45.046Z,11.73
2019-01-20T06:47:15.175Z,10.60
2019-01-20T06:49:45.547Z,10.82
2019-01-20T06:52:16.970Z,12.78
2019-01-20T06:54:47.493Z,12.05
2019-01-20T06:57:17.558Z,12.70
2019-01-20T06:59:47.644Z,13.10
2019-01-20T07:02:17.686Z,13.03
2019-01-20T07:04:47.735Z,12.33
2019-01-20T07:07:17.855Z,12.93
2019-01-20T07:09:47.919Z,13.08
2019-01-20T07:12:18.263Z,12.53
2019-01-20T07:14:49.118Z,11.85
2019-01-20T07:20:36.092Z,11.70
2019-01-20T07:23:06.141Z,12.28
2019-01-20T07:25:36.486Z,11.40
2019-01-20T07:28:06.548Z,11.20
2019-01-20T07:30:36.715Z,12.23
2019-01-20T07:33:07.151Z,11.90
2019-01-20T07:35:37.159Z,11.95
2019-01-20T07:38:07.349Z,11.70
2019-01-20T07:40:37.445Z,12.40
2019-01-20T07:43:07.833Z,12.10
2019-01-20T07:45:38.320Z,13.00
2019-01-20T07:48:08.445Z,12.20
2019-01-20T07:50:38.803Z,12.75
2019-01-20T07:53:08.843Z,12.28
2019-01-20T07:55:38.884Z,12.80
2019-01-20T07:58:08.953Z,12.90
2019-01-20T08:00:38.977Z,13.18
2019-01-20T08:03:09.022Z,13.10
2019-01-20T08:05:39.093Z,12.73
2019-01-20T08:08:09.638Z,12.68
2019-01-20T08:10:40.039Z,13.35
2019-01-20T08:13:10.082Z,12.80
2019-01-20T08:15:40.139Z,12.30
2019-01-20T08:18:10.598Z,13.40
2019-01-20T08:20:40.655Z,12.93
2019-01-20T08:23:10.680Z,12.20
2019-01-20T08:25:40.758Z,11.83
2019-01-20T08:28:10.816Z,12.45
2019-01-20T08:30:40.880Z,12.63
2019-01-20T08:33:11.318Z,13.25
2019-01-20T08:35:41.750Z,12.88
2019-01-20T08:38:11.837Z,12.98
2019-01-20T08:40:41.976Z,11.43
2019-01-20T08:43:12.076Z,12.73
2019-01-20T08:46:10.832Z,11.33
2019-01-20T08:48:41.032Z,12.70
2019-01-20T08:51:12.778Z,13.35
2019-01-20T08:53:42.796Z,14.20
2019-01-20T08:56:12.895Z,13.53
2019-01-20T08:58:42.923Z,14.70
2019-01-20T09:01:13.439Z,14.10
2019-01-20T09:03:44.907Z,13.38
2019-01-20T09:06:14.974Z,13.98
2019-01-20T09:08:45.012Z,13.70
2019-01-20T09:11:15.541Z,15.00
2019-01-20T09:13:46.012Z,15.60
2019-01-20T09:16:16.085Z,13.45
2019-01-20T09:18:46.132Z,13.83
2019-01-20T09:21:16.200Z,14.80
2019-01-20T09:23:46.568Z,14.43
2019-01-20T09:26:16.618Z,14.33
2019-01-20T09:28:46.682Z,14.13
2019-01-20T09:31:17.041Z,13.43
2019-01-20T09:33:47.259Z,15.85
2019-01-20T09:36:17.331Z,14.05
2019-01-20T09:38:47.884Z,15.80
2019-01-20T09:41:17.984Z,16.50
2019-01-20T09:43:48.129Z,13.95
2019-01-20T09:46:18.179Z,16.12
2019-01-20T09:48:48.292Z,15.25
2019-01-20T09:51:18.344Z,14.90
2019-01-20T09:53:48.545Z,15.60
2019-01-20T09:56:18.620Z,14.80
2019-01-20T09:58:49.123Z,15.80
2019-01-20T10:01:19.195Z,14.47
2019-01-20T10:03:49.617Z,16.67
2019-01-20T10:06:19.679Z,15.15
2019-01-20T10:08:49.722Z,15.20
2019-01-20T10:11:19.860Z,15.95
2019-01-20T10:13:54.756Z,16.90
2019-01-20T10:16:21.715Z,17.20
2019-01-20T10:18:52.054Z,17.90
2019-01-20T10:21:22.480Z,16.20
2019-01-20T10:23:52.899Z,17.85
2019-01-20T10:26:23.359Z,16.95
2019-01-20T10:28:53.435Z,16.48
2019-01-20T10:31:23.546Z,17.52
2019-01-20T10:33:53.839Z,17.62
2019-01-20T10:36:24.037Z,17.05
2019-01-20T10:38:54.079Z,16.60
2019-01-20T10:41:24.220Z,17.02
2019-01-20T10:43:54.577Z,16.70
2019-01-20T10:46:24.612Z,15.93
2019-01-20T10:48:54.641Z,16.42
2019-01-20T10:51:24.741Z,15.48
2019-01-20T10:53:54.823Z,17.12
2019-01-20T10:56:24.830Z,15.68
2019-01-20T10:58:55.280Z,16.85
2019-01-20T11:01:25.421Z,16.07
2019-01-20T11:03:55.478Z,15.48
2019-01-20T11:06:25.917Z,16.05
2019-01-20T11:08:55.984Z,16.23
2019-01-20T11:11:26.086Z,16.02
2019-01-20T11:13:56.138Z,16.17
2019-01-20T11:16:26.178Z,17.50
2019-01-20T11:18:56.281Z,17.00
2019-01-20T11:21:26.427Z,16.70
2019-01-20T11:23:57.075Z,17.30
2019-01-20T11:26:27.607Z,16.62
2019-01-20T11:28:57.664Z,16.70
2019-01-20T11:31:27.682Z,17.30
2019-01-20T11:33:57.795Z,17.60
2019-01-20T11:36:27.993Z,16.80
2019-01-20T11:38:58.046Z,16.97
2019-01-20T11:41:28.526Z,16.77
2019-01-20T11:43:58.621Z,18.27
2019-01-20T11:46:28.711Z,16.95
2019-01-20T11:48:59.095Z,17.52
2019-01-20T11:51:29.125Z,16.48
2019-01-20T11:53:59.329Z,17.55
2019-01-20T11:56:30.665Z,17.65
2019-01-20T11:59:04.255Z,15.70
2019-01-20T12:05:13.110Z,18.45
2019-01-20T12:07:43.145Z,15.70
2019-01-20T12:10:14.118Z,17.48
2019-01-20T12:13:28.262Z,16.80
2019-01-20T12:15:58.830Z,17.95
2019-01-20T12:18:28.861Z,16.70
2019-01-20T12:21:00.440Z,16.62
2019-01-20T12:23:30.483Z,17.15
2019-01-20T12:26:00.609Z,16.77
2019-01-20T12:28:31.111Z,16.70
2019-01-20T12:31:01.192Z,16.20
2019-01-20T12:33:31.535Z,15.68
2019-01-20T12:36:02.433Z,15.05
2019-01-20T12:38:32.452Z,15.15
2019-01-20T12:41:02.591Z,15.38
2019-01-20T12:43:33.001Z,15.53
2019-01-20T12:46:12.285Z,14.35
2019-01-20T12:48:42.697Z,16.85
2019-01-20T12:52:05.933Z,14.15
2019-01-20T12:54:36.343Z,16.10
2019-01-20T12:57:06.394Z,15.80
2019-01-20T12:59:36.491Z,17.73
2019-01-20T13:02:06.566Z,17.25
2019-01-20T13:04:36.659Z,17.42
2019-01-20T13:07:06.668Z,16.48
2019-01-20T13:09:36.764Z,17.32
2019-01-20T13:17:01.514Z,16.10
2019-01-20T13:22:51.844Z,16.20
2019-01-20T13:25:24.034Z,16.32
2019-01-20T13:27:56.053Z,17.17
2019-01-20T13:30:27.539Z,17.00
2019-01-20T13:32:57.932Z,17.02
2019-01-20T13:35:31.785Z,17.35
2019-01-20T13:38:07.216Z,16.55
2019-01-20T13:41:01.065Z,17.55
2019-01-20T13:43:33.676Z,16.23
2019-01-20T13:46:04.185Z,18.45
2019-01-20T13:48:34.384Z,17.27
2019-01-20T13:51:04.819Z,17.62
2019-01-20T13:53:34.862Z,15.60
2019-01-20T13:56:05.149Z,16.82
2019-01-20T13:58:35.227Z,16.20
2019-01-20T14:01:05.552Z,16.50
2019-01-20T14:03:35.611Z,17.30
2019-01-20T14:06:06.098Z,15.70
2019-01-20T14:08:36.276Z,16.02
2019-01-20T14:11:06.689Z,17.35
2019-01-20T14:13:36.832Z,16.25
2019-01-20T14:16:07.299Z,16.15
2019-01-20T14:18:37.460Z,14.30
2019-01-20T14:21:07.509Z,16.17
2019-01-20T14:23:37.622Z,15.78
2019-01-20T14:26:07.802Z,14.43
2019-01-20T14:28:38.340Z,14.28
2019-01-20T14:31:16.863Z,15.03
2019-01-20T14:33:46.888Z,15.00
2019-01-20T14:40:21.527Z,15.65
2019-01-20T14:42:51.629Z,16.00
2019-01-20T14:45:22.060Z,15.95
2019-01-20T14:47:52.279Z,14.78
2019-01-20T14:50:24.050Z,15.88
2019-01-20T14:52:54.105Z,15.55
2019-01-20T14:55:26.430Z,15.98
2019-01-20T14:57:56.440Z,14.40
2019-01-20T15:00:32.565Z,15.68
2019-01-20T15:03:02.657Z,15.18
2019-01-20T15:05:32.675Z,16.45
2019-01-20T15:08:03.204Z,15.63
2019-01-20T15:10:33.458Z,15.32
2019-01-20T15:13:03.574Z,15.00
2019-01-20T15:15:37.181Z,14.20
2019-01-20T15:18:07.840Z,14.53
2019-01-20T15:20:37.990Z,14.50
2019-01-20T15:23:10.045Z,14.03
2019-01-20T15:25:40.329Z,15.85
2019-01-20T15:28:11.250Z,15.48
2019-01-20T15:30:41.273Z,15.23
2019-01-20T15:33:11.592Z,14.90
2019-01-20T15:35:41.614Z,17.00
2019-01-20T15:38:12.435Z,15.60
2019-01-20T15:40:42.540Z,15.68
2019-01-20T15:43:12.548Z,16.73
2019-01-20T15:45:42.642Z,15.63
2019-01-20T15:48:13.740Z,16.02
2019-01-20T15:50:44.243Z,14.87
2019-01-20T15:53:14.630Z,15.55
2019-01-20T15:55:44.673Z,15.63
2019-01-20T15:58:15.032Z,15.53
2019-01-20T16:00:45.046Z,13.90
2019-01-20T16:03:15.038Z,14.98
2019-01-20T16:05:45.036Z,16.00
2019-01-20T16:08:15.086Z,17.32
2019-01-20T16:10:45.448Z,15.93
2019-01-20T16:13:15.458Z,14.90
2019-01-20T16:15:45.530Z,16.60
2019-01-20T16:18:15.720Z,16.37
2019-01-20T16:20:47.966Z,16.12
2019-01-20T16:23:18.995Z,16.87
2019-01-20T16:25:49.376Z,16.90
2019-01-20T16:32:07.769Z,17.45
2019-01-20T16:34:37.804Z,15.43
2019-01-20T16:37:08.271Z,16.42
2019-01-20T16:39:38.755Z,16.23
2019-01-20T16:42:08.812Z,15.95
2019-01-20T16:44:38.828Z,15.43
2019-01-20T16:47:08.961Z,15.50
2019-01-20T16:49:39.031Z,16.97
2019-01-20T16:52:10.759Z,16.55
2019-01-20T16:54:40.903Z,17.23
2019-01-20T16:57:11.740Z,17.95
2019-01-20T16:59:41.822Z,17.75
2019-01-20T17:02:12.434Z,18.02
2019-01-20T17:04:43.371Z,18.40
2019-01-20T17:07:13.495Z,18.17
2019-01-20T17:09:43.891Z,18.32
2019-01-20T17:12:15.056Z,18.17
2019-01-20T17:14:45.471Z,19.10
2019-01-20T17:17:16.981Z,17.25
2019-01-20T17:19:47.031Z,18.85
2019-01-20T17:22:17.044Z,19.00
2019-01-20T17:24:47.385Z,17.60
2019-01-20T17:27:17.375Z,17.35
2019-01-20T17:29:47.397Z,17.55
2019-01-20T17:32:18.107Z,18.40
2019-01-20T17:34:48.477Z,18.12
2019-01-20T17:37:20.645Z,17.87
2019-01-20T17:39:51.793Z,18.37
2019-01-20T17:42:21.783Z,18.65
2019-01-20T17:44:52.631Z,19.40
2019-01-20T17:47:22.627Z,19.10
2019-01-20T17:49:59.840Z,20.82
2019-01-20T17:52:31.821Z,19.23
2019-01-20T17:55:01.925Z,18.85
2019-01-20T17:57:34.103Z,21.15
2019-01-20T18:00:07.119Z,21.87
2019-01-20T18:02:37.142Z,21.57
2019-01-20T18:05:09.144Z,21.40
2019-01-20T18:07:41.197Z,20.37
2019-01-20T18:10:12.715Z,20.70
2019-01-20T18:12:42.868Z,22.90
2019-01-20T18:15:34.559Z,23.75
2019-01-20T18:18:05.092Z,21.95
2019-01-20T18:20:36.422Z,22.27
2019-01-20T18:23:06.815Z,23.27
2019-01-20T18:25:36.813Z,22.45
2019-01-20T18:28:07.967Z,23.05
2019-01-20T18:30:38.050Z,23.75
2019-01-20T18:33:08.069Z,21.97
2019-01-20T18:35:38.077Z,24.40
2019-01-20T18:38:08.746Z,24.10
2019-01-20T18:40:39.375Z,23.75
2019-01-20T18:43:09.370Z,23.50
2019-01-20T18:45:40.528Z,23.90
2019-01-20T18:48:10.879Z,26.30
2019-01-20T18:50:40.878Z,24.10
2019-01-20T18:53:10.985Z,24.30
2019-01-20T18:55:41.519Z,22.67
2019-01-20T18:58:11.547Z,23.27
2019-01-20T19:00:47.112Z,22.45
2019-01-20T19:03:17.160Z,24.35
2019-01-20T19:05:47.218Z,23.70
2019-01-20T19:08:17.954Z,22.45
2019-01-20T19:10:49.040Z,22.45
2019-01-20T19:13:19.899Z,22.70
2019-01-20T19:15:50.272Z,23.07
2019-01-20T19:18:23.281Z,21.82
2019-01-20T19:20:53.656Z,22.52
2019-01-20T19:23:23.686Z,24.02
2019-01-20T19:25:53.686Z,24.87
2019-01-20T19:28:23.716Z,22.52
2019-01-20T19:30:54.144Z,23.80
2019-01-20T19:33:24.150Z,22.73
2019-01-20T19:35:54.171Z,23.35
2019-01-20T19:38:24.180Z,23.25
2019-01-20T19:40:54.232Z,24.70
2019-01-20T19:43:24.615Z,24.40
2019-01-20T19:45:54.648Z,24.63
2019-01-20T19:48:24.978Z,24.43
2019-01-20T19:50:54.993Z,24.37
2019-01-20T19:53:25.071Z,23.47
2019-01-20T19:55:55.526Z,24.60
2019-01-20T19:59:07.738Z,24.00
2019-01-20T20:01:37.784Z,24.25
2019-01-20T20:04:07.948Z,23.83
2019-01-20T20:06:40.125Z,22.70
2019-01-20T20:09:13.229Z,25.45
2019-01-20T20:11:43.246Z,22.77
2019-01-20T20:14:13.354Z,23.07
2019-01-20T20:16:43.807Z,23.65
2019-01-20T20:19:13.971Z,24.98
2019-01-20T20:21:44.347Z,24.40
2019-01-20T20:24:25.426Z,25.60
2019-01-20T20:26:53.953Z,23.20
2019-01-20T20:29:24.302Z,24.20
2019-01-20T20:31:54.326Z,22.95
2019-01-20T20:34:24.789Z,24.30
2019-01-20T20:36:55.184Z,24.95
2019-01-20T20:39:25.194Z,24.37
2019-01-20T20:41:55.654Z,22.37
2019-01-20T20:44:25.668Z,24.47
2019-01-20T20:46:55.694Z,24.25
2019-01-20T20:49:26.000Z,23.15
2019-01-20T20:51:55.994Z,25.30
2019-01-20T20:54:26.100Z,24.15
2019-01-20T20:56:56.094Z,24.47
2019-01-20T20:59:26.126Z,26.55
2019-01-20T21:01:56.118Z,23.85
2019-01-20T21:04:26.611Z,24.87
2019-01-20T21:06:58.478Z,24.20
2019-01-20T21:09:28.508Z,25.52
2019-01-20T21:11:58.515Z,23.95
2019-01-20T21:14:28.520Z,24.23
2019-01-20T21:16:58.595Z,24.82
2019-01-20T21:19:28.622Z,23.40
2019-01-20T21:21:58.629Z,23.55
2019-01-20T21:24:28.639Z,25.25
2019-01-20T21:26:58.657Z,25.20
2019-01-20T21:29:28.661Z,27.25
2019-01-20T21:31:58.654Z,23.05
2019-01-20T21:34:29.038Z,24.63
2019-01-20T21:36:59.048Z,23.12
2019-01-20T21:39:29.512Z,25.30
2019-01-20T21:41:59.566Z,24.70
2019-01-20T21:44:29.623Z,25.40
2019-01-20T21:46:59.610Z,24.20
2019-01-20T21:49:29.624Z,25.60
2019-01-20T21:51:59.642Z,25.48
2019-01-20T21:54:29.726Z,25.02
2019-01-20T21:56:59.726Z,23.35
2019-01-20T21:59:29.723Z,24.52
2019-01-20T22:01:59.788Z,23.75
2019-01-20T22:04:29.804Z,24.00
2019-01-20T22:06:59.817Z,26.35
2019-01-20T22:09:30.600Z,25.20
2019-01-20T22:12:00.603Z,26.12
2019-01-20T22:14:30.610Z,25.60
2019-01-20T22:17:00.594Z,24.72
2019-01-20T22:19:30.997Z,24.15
2019-01-20T22:22:01.047Z,25.02
2019-01-20T22:24:31.033Z,26.17
2019-01-20T22:27:01.041Z,24.07
2019-01-20T22:29:31.777Z,25.08
2019-01-20T22:32:02.239Z,24.87
2019-01-20T22:34:32.698Z,25.20
2019-01-20T22:37:02.780Z,25.30
2019-01-20T22:39:32.761Z,24.37
2019-01-20T22:42:02.769Z,25.62
2019-01-20T22:44:37.156Z,24.40
2019-01-20T22:47:07.260Z,24.35
2019-01-20T22:49:37.624Z,26.27
2019-01-20T22:52:07.651Z,24.92
2019-01-20T22:54:37.628Z,25.37
2019-01-20T22:57:07.645Z,26.12
2019-01-20T22:59:38.323Z,25.30
2019-01-20T23:02:08.334Z,24.23
2019-01-20T23:04:38.323Z,25.05
2019-01-20T23:07:08.367Z,26.30
2019-01-20T23:09:38.412Z,23.98
2019-01-20T23:12:14.653Z,25.23
2019-01-20T23:14:44.732Z,25.10
2019-01-20T23:17:14.743Z,25.60
2019-01-20T23:19:45.111Z,25.50
2019-01-20T23:22:15.138Z,25.35
2019-01-20T23:24:45.791Z,24.25
2019-01-20T23:27:16.287Z,24.27
2019-01-20T23:29:46.278Z,24.77
2019-01-20T23:32:16.327Z,24.20
2019-01-20T23:34:46.380Z,23.98
2019-01-20T23:37:16.398Z,23.95
2019-01-20T23:39:46.567Z,25.23
2019-01-20T23:42:16.599Z,24.05
2019-01-20T23:44:46.601Z,25.48
2019-01-20T23:47:16.654Z,24.12
2019-01-20T23:49:46.651Z,24.65
2019-01-20T23:52:16.721Z,23.45
2019-01-20T23:58:10.432Z,24.45
